Aviation Digital Data Service (ADDS)

Output produced by METARs form (2114 UTC 09 December 2016)
found at http://aviationweather.gov/adds/metars/
 
KAVL 091737Z 0918/1018 34013G21KT P6SM SKC 
     FM100100 35007KT P6SM FEW250